Avenue, Maryland
Current Conditions -  °F | °C
As of 10:23 AM on Monday 24 Nov 2014 (Local Time) from K2W6 Reporting Station
Overcast Overcast  
Wind Chill: 64°   Ceiling: 2900
Heat Index: 64°   Visibility: 10mi
Dew Point: 55°   Wind: 12mph
Humidity: 73%   Direction: 210°SSW
Pressure: 29.75"   Gusts: 21mph
Location:  38.26°N, 76.77°W
Report Text: K2W6 241523Z AUTO 21010G18KT 10SM OVC029 18/13 A2975 RMK AO1
Loading
Personal Weather Stations






























Interactive Weather Map New forecast layout! Learn more

10-Day Weather Forecast

Advertisements
Track Severe Weather on mobile